Time;durP1;ratioP1;P1;durP2;ratioP2;P2;SDS_P1;SDS_P2;PMS_P1;PMS_P2;Temp;Humidity;BMP_temperature;BMP_pressure;BME280_temperature;BME280_humidity;BME280_pressure;Samples;Min_cycle;Max_cycle;Signal;HPM_P1;HPM_P2
2022/10/17 00:01:06;;;;;;;24.70;11.73;;;;;;;;;;4421052;32;20236;-86
2022/10/17 00:03:33;;;;;;;20.87;12.00;;;;;;;;;;4422374;32;20223;-86
2022/10/17 00:06:08;;;;;;;19.67;11.97;;;;;;;;;;4422478;32;20227;-86
2022/10/17 00:08:40;;;;;;;18.37;10.97;;;;;;;;;;4422664;32;20279;-86
2022/10/17 00:11:08;;;;;;;16.57;11.00;;;;;;;;;;4422358;32;20217;-86
2022/10/17 00:13:35;;;;;;;26.43;10.83;;;;;;;;;;4422450;32;20249;-86
2022/10/17 00:16:02;;;;;;;22.10;9.93;;;;;;;;;;4421907;32;20295;-86
2022/10/17 00:18:30;;;;;;;20.30;10.97;;;;;;;;;;4421900;32;20615;-86
2022/10/17 00:20:57;;;;;;;31.60;12.80;;;;;;;;;;4421855;32;20300;-86
2022/10/17 00:23:26;;;;;;;21.27;12.13;;;;;;;;;;4422323;32;20205;-86
2022/10/17 00:25:59;;;;;;;36.33;15.80;;;;;;;;;;4421813;32;20642;-86
2022/10/17 00:28:26;;;;;;;28.13;12.87;;;;;;;;;;4422390;32;20284;-86
2022/10/17 00:30:56;;;;;;;29.23;14.47;;;;;;;;;;4422171;32;20641;-86
2022/10/17 00:33:23;;;;;;;30.33;14.27;;;;;;;;;;4422403;32;20201;-86
2022/10/17 00:36:02;;;;;;;26.93;13.93;;;;;;;;;;4420646;32;20306;-86
2022/10/17 00:38:29;;;;;;;28.93;15.07;;;;;;;;;;4422415;32;20219;-86
2022/10/17 00:40:57;;;;;;;36.17;17.13;;;;;;;;;;4422188;32;20225;-86
2022/10/17 00:43:25;;;;;;;31.33;17.10;;;;;;;;;;4422181;32;20227;-86
2022/10/17 00:45:52;;;;;;;31.90;18.30;;;;;;;;;;4422336;32;20216;-86
2022/10/17 00:48:21;;;;;;;32.30;16.73;;;;;;;;;;4421658;32;20229;-86
2022/10/17 00:50:49;;;;;;;33.20;19.53;;;;;;;;;;4424605;32;20236;-86
2022/10/17 00:53:18;;;;;;;36.07;18.63;;;;;;;;;;4424894;32;20205;-86
2022/10/17 00:55:49;;;;;;;35.23;19.07;;;;;;;;;;4424787;32;20231;-86
2022/10/17 00:58:17;;;;;;;31.77;17.63;;;;;;;;;;4424781;32;20213;-86
2022/10/17 01:00:46;;;;;;;27.83;19.20;;;;;;;;;;4424701;32;20569;-86
2022/10/17 01:03:13;;;;;;;33.37;17.87;;;;;;;;;;4424703;32;20287;-86
2022/10/17 01:05:41;;;;;;;26.60;16.33;;;;;;;;;;4424548;32;20225;-86
2022/10/17 01:08:10;;;;;;;31.40;17.00;;;;;;;;;;4425161;32;20213;-86
2022/10/17 01:10:48;;;;;;;31.40;15.37;;;;;;;;;;4424503;32;20205;-86
2022/10/17 01:13:25;;;;;;;25.10;16.17;;;;;;;;;;4425118;32;20614;-86
2022/10/17 01:15:59;;;;;;;26.83;15.33;;;;;;;;;;4425007;32;20653;-86
2022/10/17 01:18:40;;;;;;;22.20;12.73;;;;;;;;;;4425313;32;20267;-86
2022/10/17 01:21:32;;;;;;;25.83;13.83;;;;;;;;;;4424814;32;20212;-86
2022/10/17 01:24:37;;;;;;;21.67;12.03;;;;;;;;;;4424991;32;20250;-86
2022/10/17 01:27:28;;;;;;;21.20;11.47;;;;;;;;;;4424500;32;20220;-86
2022/10/17 01:30:09;;;;;;;17.43;10.23;;;;;;;;;;4424890;32;20215;-86
2022/10/17 01:32:40;;;;;;;26.83;10.20;;;;;;;;;;4424325;32;20235;-86
2022/10/17 01:35:12;;;;;;;19.27;9.63;;;;;;;;;;4424839;32;20229;-86
2022/10/17 01:37:45;;;;;;;19.23;9.97;;;;;;;;;;4424310;32;20217;-86
2022/10/17 01:40:16;;;;;;;22.73;10.20;;;;;;;;;;4424753;32;20227;-86
2022/10/17 01:42:48;;;;;;;25.60;9.57;;;;;;;;;;4424113;32;20750;-86
2022/10/17 01:45:23;;;;;;;18.90;10.13;;;;;;;;;;4424654;32;20217;-86
2022/10/17 01:47:53;;;;;;;17.80;9.70;;;;;;;;;;4424052;32;20216;-86
2022/10/17 01:50:24;;;;;;;18.10;11.40;;;;;;;;;;4424628;32;20625;-86
2022/10/17 01:52:55;;;;;;;21.07;10.93;;;;;;;;;;4423999;32;20221;-86
2022/10/17 01:55:26;;;;;;;23.87;12.43;;;;;;;;;;4423987;32;20225;-86
2022/10/17 01:57:57;;;;;;;15.67;9.83;;;;;;;;;;4423799;32;20307;-86
2022/10/17 02:00:27;;;;;;;15.80;8.17;;;;;;;;;;4423470;32;20215;-86
2022/10/17 02:02:58;;;;;;;16.80;8.03;;;;;;;;;;4422722;32;20229;-85
2022/10/17 02:05:30;;;;;;;10.67;6.77;;;;;;;;;;4423669;32;20284;-86
2022/10/17 02:07:58;;;;;;;17.33;7.93;;;;;;;;;;4424335;32;20240;-86
2022/10/17 02:10:36;;;;;;;11.43;7.47;;;;;;;;;;4424519;32;20231;-86
2022/10/17 02:13:11;;;;;;;12.87;7.83;;;;;;;;;;4424273;32;20342;-86
2022/10/17 02:16:07;;;;;;;14.60;9.03;;;;;;;;;;4424088;32;20204;-86
2022/10/17 02:19:01;;;;;;;12.47;8.10;;;;;;;;;;4423672;32;20200;-86
2022/10/17 02:21:34;;;;;;;13.33;8.37;;;;;;;;;;4423462;32;20653;-86
2022/10/17 02:24:07;;;;;;;19.97;8.33;;;;;;;;;;4423814;32;20236;-85
2022/10/17 02:26:41;;;;;;;14.50;7.97;;;;;;;;;;4423262;32;20634;-86
2022/10/17 02:29:16;;;;;;;12.87;8.30;;;;;;;;;;4423670;32;20220;-85
2022/10/17 02:31:46;;;;;;;19.50;8.57;;;;;;;;;;4424096;32;20216;-85
2022/10/17 02:34:18;;;;;;;16.40;9.10;;;;;;;;;;4423566;32;20308;-86
2022/10/17 02:36:51;;;;;;;20.80;10.57;;;;;;;;;;4423984;32;20201;-86
2022/10/17 02:39:21;;;;;;;17.20;9.10;;;;;;;;;;4423478;32;20617;-86
2022/10/17 02:41:50;;;;;;;22.07;9.97;;;;;;;;;;4422715;32;20227;-86
2022/10/17 02:44:18;;;;;;;12.63;9.83;;;;;;;;;;4423446;32;20748;-86
2022/10/17 02:46:47;;;;;;;14.57;10.03;;;;;;;;;;4423249;32;20541;-86
2022/10/17 02:49:21;;;;;;;15.17;9.70;;;;;;;;;;4423198;32;20225;-86
2022/10/17 02:51:55;;;;;;;14.50;9.83;;;;;;;;;;4423748;32;20223;-86
2022/10/17 02:54:29;;;;;;;15.20;8.93;;;;;;;;;;4423459;32;20240;-86
2022/10/17 02:57:02;;;;;;;13.83;9.03;;;;;;;;;;4423710;32;20227;-86
2022/10/17 02:59:33;;;;;;;17.53;10.97;;;;;;;;;;4423272;32;20604;-86
2022/10/17 03:02:03;;;;;;;14.47;9.93;;;;;;;;;;4423585;32;20223;-86
2022/10/17 03:04:32;;;;;;;14.13;9.27;;;;;;;;;;4422918;32;20233;-86
2022/10/17 03:06:59;;;;;;;15.43;10.20;;;;;;;;;;4422973;32;20209;-86
2022/10/17 03:09:26;;;;;;;19.23;9.50;;;;;;;;;;4422853;32;20225;-86
2022/10/17 03:11:54;;;;;;;22.40;8.90;;;;;;;;;;4422586;32;20264;-87
2022/10/17 03:14:21;;;;;;;13.60;9.87;;;;;;;;;;4422768;32;20270;-86
2022/10/17 03:16:47;;;;;;;15.50;9.97;;;;;;;;;;4423153;32;20213;-86
2022/10/17 03:19:14;;;;;;;17.87;10.03;;;;;;;;;;4409101;32;20338;-86
2022/10/17 03:21:43;;;;;;;25.83;10.07;;;;;;;;;;4422630;32;20213;-86
2022/10/17 03:24:10;;;;;;;17.27;11.03;;;;;;;;;;4422111;32;20237;-86
2022/10/17 03:26:37;;;;;;;13.00;9.20;;;;;;;;;;4423056;32;20239;-86
2022/10/17 03:29:04;;;;;;;19.47;10.23;;;;;;;;;;4422521;32;20291;-86
2022/10/17 03:31:31;;;;;;;16.57;10.50;;;;;;;;;;4422571;32;20547;-86
2022/10/17 03:33:58;;;;;;;16.57;11.03;;;;;;;;;;4422649;32;20221;-85
2022/10/17 03:36:25;;;;;;;12.47;9.97;;;;;;;;;;4421439;32;20659;-86
2022/10/17 03:38:55;;;;;;;17.17;10.17;;;;;;;;;;4422589;32;20217;-86
2022/10/17 03:41:22;;;;;;;22.77;9.37;;;;;;;;;;4423165;32;20232;-86
2022/10/17 03:43:49;;;;;;;14.60;10.33;;;;;;;;;;4421135;32;20607;-86
2022/10/17 03:46:16;;;;;;;18.53;11.50;;;;;;;;;;4422378;32;20507;-86
2022/10/17 03:48:43;;;;;;;14.13;9.87;;;;;;;;;;4422552;32;20216;-85
2022/10/17 03:51:10;;;;;;;16.43;11.83;;;;;;;;;;4422382;32;20205;-85
2022/10/17 03:53:37;;;;;;;24.90;12.67;;;;;;;;;;4421655;32;20274;-86
2022/10/17 03:56:14;;;;;;;15.10;12.20;;;;;;;;;;4421177;32;20590;-86
2022/10/17 03:58:43;;;;;;;16.77;12.30;;;;;;;;;;4422440;32;20239;-86
2022/10/17 04:01:11;;;;;;;22.83;13.47;;;;;;;;;;4422282;32;20640;-86
2022/10/17 04:03:39;;;;;;;19.10;13.50;;;;;;;;;;4422199;32;20383;-86
2022/10/17 04:06:07;;;;;;;19.73;11.87;;;;;;;;;;4422582;32;20301;-86
2022/10/17 04:08:35;;;;;;;22.37;12.40;;;;;;;;;;4422337;32;20221;-86
2022/10/17 04:11:02;;;;;;;22.17;11.30;;;;;;;;;;4421985;32;20205;-86
2022/10/17 04:13:32;;;;;;;17.60;11.27;;;;;;;;;;4422261;32;20276;-86
2022/10/17 04:16:01;;;;;;;19.27;11.83;;;;;;;;;;4421958;32;20213;-86
2022/10/17 04:18:28;;;;;;;24.97;12.73;;;;;;;;;;4420825;32;20232;-86
2022/10/17 04:20:57;;;;;;;21.60;12.63;;;;;;;;;;4420815;32;20688;-86
2022/10/17 04:23:25;;;;;;;25.73;13.40;;;;;;;;;;4420250;32;20236;-86
2022/10/17 04:25:57;;;;;;;26.47;13.80;;;;;;;;;;4421910;32;20280;-86
2022/10/17 04:28:24;;;;;;;23.20;13.83;;;;;;;;;;4422182;32;20244;-87
2022/10/17 04:30:58;;;;;;;21.10;12.73;;;;;;;;;;4421887;32;20545;-85
2022/10/17 04:33:25;;;;;;;20.30;13.10;;;;;;;;;;4422173;32;20387;-86
2022/10/17 04:35:57;;;;;;;22.13;14.27;;;;;;;;;;4422273;32;20201;-86
2022/10/17 04:38:24;;;;;;;21.63;13.17;;;;;;;;;;4422266;32;20565;-86
2022/10/17 04:40:51;;;;;;;29.50;16.40;;;;;;;;;;4421522;32;20255;-86
2022/10/17 04:43:18;;;;;;;31.97;18.00;;;;;;;;;;4421700;32;20221;-86
2022/10/17 04:45:45;;;;;;;39.57;20.47;;;;;;;;;;4421610;32;20230;-86
2022/10/17 04:48:14;;;;;;;46.90;24.20;;;;;;;;;;4421669;32;20221;-86
2022/10/17 04:50:41;;;;;;;42.00;26.03;;;;;;;;;;4422138;32;20205;-86
2022/10/17 04:53:08;;;;;;;49.57;32.33;;;;;;;;;;4421613;32;20323;-87
2022/10/17 04:55:39;;;;;;;79.33;48.10;;;;;;;;;;4422147;32;20227;-86
2022/10/17 04:58:09;;;;;;;82.47;47.50;;;;;;;;;;4421570;32;20284;-86
2022/10/17 05:00:37;;;;;;;74.23;41.60;;;;;;;;;;4420926;32;20712;-86
2022/10/17 05:03:04;;;;;;;44.13;26.40;;;;;;;;;;4421144;32;20607;-86
2022/10/17 05:05:33;;;;;;;46.90;26.37;;;;;;;;;;4421171;32;20225;-86
2022/10/17 05:08:00;;;;;;;48.33;27.63;;;;;;;;;;4421443;32;20278;-86
2022/10/17 05:10:27;;;;;;;43.53;26.10;;;;;;;;;;4419879;32;20232;-86
2022/10/17 05:12:55;;;;;;;44.10;29.17;;;;;;;;;;4421307;32;20300;-87
2022/10/17 05:15:22;;;;;;;54.13;29.10;;;;;;;;;;4421199;32;20550;-87
2022/10/17 05:17:56;;;;;;;59.87;33.77;;;;;;;;;;4420763;32;20256;-87
2022/10/17 05:20:23;;;;;;;57.63;29.70;;;;;;;;;;4421760;32;20209;-85
2022/10/17 05:22:52;;;;;;;60.30;33.07;;;;;;;;;;4422294;32;20358;-86
2022/10/17 05:25:19;;;;;;;63.80;37.40;;;;;;;;;;4420649;32;20523;-86
2022/10/17 05:27:47;;;;;;;95.83;45.13;;;;;;;;;;4421755;32;20279;-86
2022/10/17 05:30:15;;;;;;;92.97;49.87;;;;;;;;;;4421140;32;20231;-86
2022/10/17 05:32:42;;;;;;;84.17;50.07;;;;;;;;;;4420743;32;20240;-86
2022/10/17 05:35:09;;;;;;;76.80;45.70;;;;;;;;;;4422818;32;20227;-87
2022/10/17 05:37:36;;;;;;;85.00;48.60;;;;;;;;;;4422910;32;20216;-86
2022/10/17 05:40:09;;;;;;;77.70;46.40;;;;;;;;;;4424400;32;20216;-86
2022/10/17 05:42:36;;;;;;;108.43;54.63;;;;;;;;;;4424233;32;20663;-86
2022/10/17 05:45:03;;;;;;;77.73;48.37;;;;;;;;;;4423551;32;20213;-86
2022/10/17 05:47:30;;;;;;;82.27;47.77;;;;;;;;;;4423368;32;20235;-87
2022/10/17 05:49:57;;;;;;;93.40;45.97;;;;;;;;;;4423669;32;20562;-86
2022/10/17 05:52:28;;;;;;;76.73;45.00;;;;;;;;;;4423934;32;20217;-86
2022/10/17 05:54:55;;;;;;;79.03;45.57;;;;;;;;;;4423187;32;20650;-86
2022/10/17 05:57:24;;;;;;;79.07;42.50;;;;;;;;;;4423411;32;20221;-86
2022/10/17 05:59:51;;;;;;;62.77;35.30;;;;;;;;;;4423255;32;20240;-86
2022/10/17 06:02:18;;;;;;;70.97;35.73;;;;;;;;;;4424138;32;20271;-86
2022/10/17 06:04:47;;;;;;;59.67;36.33;;;;;;;;;;4421844;32;20263;-87
2022/10/17 06:07:14;;;;;;;75.87;39.60;;;;;;;;;;4423845;32;20626;-86
2022/10/17 06:09:43;;;;;;;76.57;42.23;;;;;;;;;;4423137;32;20603;-86
2022/10/17 06:12:11;;;;;;;66.33;38.50;;;;;;;;;;4422994;32;20660;-86
2022/10/17 06:14:40;;;;;;;59.13;38.03;;;;;;;;;;4423284;32;20549;-86
2022/10/17 06:17:07;;;;;;;51.70;35.20;;;;;;;;;;4423691;32;20343;-89
2022/10/17 06:19:34;;;;;;;60.00;34.97;;;;;;;;;;4423037;32;20225;-87
2022/10/17 06:22:01;;;;;;;52.73;34.17;;;;;;;;;;4423676;32;20287;-86
2022/10/17 06:24:29;;;;;;;63.67;34.53;;;;;;;;;;4422940;32;20239;-87
2022/10/17 06:26:57;;;;;;;59.33;32.07;;;;;;;;;;4423731;32;20216;-86
2022/10/17 06:29:25;;;;;;;57.70;34.77;;;;;;;;;;4423431;32;20248;-86
2022/10/17 06:31:55;;;;;;;48.57;32.23;;;;;;;;;;4423483;32;20244;-86
2022/10/17 06:34:23;;;;;;;45.87;30.97;;;;;;;;;;4422940;32;20228;-86
2022/10/17 06:36:50;;;;;;;54.30;30.40;;;;;;;;;;4423029;32;20210;-86
2022/10/17 06:39:16;;;;;;;58.57;31.57;;;;;;;;;;4423263;32;20317;-86
2022/10/17 06:41:43;;;;;;;55.10;29.73;;;;;;;;;;4423275;32;20210;-85
2022/10/17 06:44:11;;;;;;;52.37;26.57;;;;;;;;;;4422713;32;20315;-86
2022/10/17 06:46:40;;;;;;;43.67;26.17;;;;;;;;;;4422442;32;20221;-86
2022/10/17 06:49:09;;;;;;;42.80;26.83;;;;;;;;;;4422670;32;20300;-85
2022/10/17 06:51:37;;;;;;;47.67;26.17;;;;;;;;;;4422745;32;20292;-86
2022/10/17 06:54:04;;;;;;;34.17;23.50;;;;;;;;;;4422136;32;20241;-87
2022/10/17 06:56:31;;;;;;;31.73;22.60;;;;;;;;;;4421886;32;20248;-86
2022/10/17 06:58:59;;;;;;;33.40;21.57;;;;;;;;;;4422567;32;20221;-87
2022/10/17 07:01:27;;;;;;;33.83;19.67;;;;;;;;;;4422235;32;20247;-87
2022/10/17 07:03:57;;;;;;;32.20;17.50;;;;;;;;;;4422149;32;20260;-87
2022/10/17 07:06:25;;;;;;;25.00;16.20;;;;;;;;;;4422164;32;20285;-86
2022/10/17 07:08:54;;;;;;;29.10;15.53;;;;;;;;;;4421965;32;20247;-87
2022/10/17 07:11:22;;;;;;;24.60;15.43;;;;;;;;;;4422619;32;20229;-87
2022/10/17 07:13:50;;;;;;;35.97;18.47;;;;;;;;;;4422138;32;20244;-87
2022/10/17 07:16:20;;;;;;;31.83;19.73;;;;;;;;;;4422933;32;20297;-86
2022/10/17 07:18:49;;;;;;;25.03;16.03;;;;;;;;;;4420859;32;20775;-86
2022/10/17 07:21:16;;;;;;;28.03;17.23;;;;;;;;;;4422872;32;20284;-88
2022/10/17 07:23:44;;;;;;;26.37;16.50;;;;;;;;;;4422121;32;20267;-88
2022/10/17 07:26:14;;;;;;;35.00;15.77;;;;;;;;;;4422288;32;20242;-85
2022/10/17 07:28:44;;;;;;;36.00;16.73;;;;;;;;;;4422393;32;20274;-85
2022/10/17 07:31:13;;;;;;;31.00;17.50;;;;;;;;;;4421709;32;20252;-85
2022/10/17 07:33:41;;;;;;;38.97;17.33;;;;;;;;;;4421950;32;20301;-91
2022/10/17 07:36:08;;;;;;;28.10;17.33;;;;;;;;;;4421841;32;20209;-85
2022/10/17 07:38:36;;;;;;;33.30;17.23;;;;;;;;;;4421672;32;20229;-87
2022/10/17 07:41:07;;;;;;;31.87;19.47;;;;;;;;;;4420633;32;20229;-86
2022/10/17 07:43:35;;;;;;;26.97;18.40;;;;;;;;;;4420691;32;20309;-86
2022/10/17 07:46:03;;;;;;;29.87;18.40;;;;;;;;;;4421332;32;20225;-84
2022/10/17 07:48:30;;;;;;;26.77;19.03;;;;;;;;;;4421511;32;20230;-86
2022/10/17 07:50:57;;;;;;;37.23;20.53;;;;;;;;;;4421805;32;20343;-86
2022/10/17 07:53:24;;;;;;;33.50;21.37;;;;;;;;;;4421734;32;20642;-87
2022/10/17 07:55:51;;;;;;;43.37;16.53;;;;;;;;;;4422586;32;20231;-86
2022/10/17 07:58:20;;;;;;;26.53;16.67;;;;;;;;;;4421042;32;20234;-86
2022/10/17 08:00:47;;;;;;;39.40;15.77;;;;;;;;;;4422196;32;20272;-86
2022/10/17 08:03:14;;;;;;;32.33;16.70;;;;;;;;;;4421797;32;20229;-88
2022/10/17 08:05:41;;;;;;;27.20;16.57;;;;;;;;;;4421454;32;20332;-86
2022/10/17 08:08:11;;;;;;;35.93;17.30;;;;;;;;;;4421792;32;20229;-88
2022/10/17 08:10:38;;;;;;;26.07;16.23;;;;;;;;;;4421397;32;20221;-87
2022/10/17 08:13:05;;;;;;;26.63;16.47;;;;;;;;;;4421805;32;20312;-87
2022/10/17 08:15:33;;;;;;;21.93;15.63;;;;;;;;;;4421665;32;20223;-88
2022/10/17 08:18:00;;;;;;;22.97;15.43;;;;;;;;;;4421700;32;20247;-86
2022/10/17 08:20:29;;;;;;;27.60;15.07;;;;;;;;;;4420315;32;20304;-85
2022/10/17 08:22:58;;;;;;;28.83;17.30;;;;;;;;;;4422068;32;20300;-86
2022/10/17 08:25:25;;;;;;;21.07;13.97;;;;;;;;;;4421693;32;20272;-86
2022/10/17 08:27:52;;;;;;;25.50;15.73;;;;;;;;;;4422890;32;20262;-87
2022/10/17 08:30:23;;;;;;;27.87;15.00;;;;;;;;;;4424029;32;20270;-86
2022/10/17 08:32:51;;;;;;;24.10;13.57;;;;;;;;;;4424579;32;20342;-86
2022/10/17 08:35:21;;;;;;;28.03;12.60;;;;;;;;;;4424835;32;20224;-86
2022/10/17 08:37:48;;;;;;;21.13;11.50;;;;;;;;;;4423562;32;20237;-86
2022/10/17 08:40:19;;;;;;;19.63;11.33;;;;;;;;;;4425207;32;20213;-85
2022/10/17 08:42:59;;;;;;;23.77;11.03;;;;;;;;;;4423229;32;20209;-86
2022/10/17 08:45:33;;;;;;;15.00;10.13;;;;;;;;;;4421824;32;20208;-86
2022/10/17 08:48:05;;;;;;;17.40;9.83;;;;;;;;;;4422314;32;20243;-86
2022/10/17 08:50:39;;;;;;;15.37;8.60;;;;;;;;;;4424190;32;20204;-86
2022/10/17 08:53:15;;;;;;;15.57;8.73;;;;;;;;;;4408927;32;20238;-88
2022/10/17 08:55:45;;;;;;;16.40;8.90;;;;;;;;;;4422953;32;20250;-87
2022/10/17 08:58:14;;;;;;;13.07;9.03;;;;;;;;;;4423240;32;20225;-86
2022/10/17 09:00:46;;;;;;;12.83;6.80;;;;;;;;;;4426262;32;20213;-86
2022/10/17 09:03:32;;;;;;;23.83;8.53;;;;;;;;;;4428550;32;20217;-87
2022/10/17 09:06:15;;;;;;;12.60;7.03;;;;;;;;;;4429150;32;20220;-86
2022/10/17 09:08:50;;;;;;;10.73;7.27;;;;;;;;;;4427178;32;20558;-87
2022/10/17 09:11:29;;;;;;;23.97;9.00;;;;;;;;;;4430740;32;20283;-86
2022/10/17 09:14:06;;;;;;;8.80;7.07;;;;;;;;;;4426374;32;20613;-87
2022/10/17 09:16:46;;;;;;;10.40;7.50;;;;;;;;;;4424719;32;20216;-86
2022/10/17 09:19:20;;;;;;;8.67;6.70;;;;;;;;;;4411154;32;20236;-86
2022/10/17 09:21:53;;;;;;;6.82;5.85;;;;;;;;;;4424371;32;20227;-87
2022/10/17 09:24:32;;;;;;;11.80;6.40;;;;;;;;;;4424051;32;20246;-87
2022/10/17 09:27:01;;;;;;;8.97;6.50;;;;;;;;;;4424535;32;20213;-89
2022/10/17 09:29:29;;;;;;;12.90;6.60;;;;;;;;;;4424020;32;20229;-86
2022/10/17 09:32:03;;;;;;;11.52;6.32;;;;;;;;;;4423296;32;20309;-87
2022/10/17 09:34:33;;;;;;;7.68;5.80;;;;;;;;;;4423826;32;20232;-86
2022/10/17 09:37:06;;;;;;;9.60;4.97;;;;;;;;;;4423890;32;20231;-86
2022/10/17 09:39:34;;;;;;;8.07;4.80;;;;;;;;;;4424110;32;20243;-86
2022/10/17 09:42:02;;;;;;;9.10;3.97;;;;;;;;;;4423351;32;20231;-86
2022/10/17 09:44:33;;;;;;;5.23;2.90;;;;;;;;;;4423499;32;20270;-87
2022/10/17 09:47:29;;;;;;;6.78;4.12;;;;;;;;;;4424418;32;20278;-86
2022/10/17 09:49:57;;;;;;;8.43;4.68;;;;;;;;;;4411676;32;20300;-86
2022/10/17 09:52:30;;;;;;;7.45;4.60;;;;;;;;;;4424784;32;20626;-87
2022/10/17 09:55:01;;;;;;;8.63;3.87;;;;;;;;;;4424292;32;20209;-87
2022/10/17 09:57:55;;;;;;;9.35;3.67;;;;;;;;;;4423757;32;20402;-86
2022/10/17 10:00:24;;;;;;;9.82;4.07;;;;;;;;;;4424126;32;20268;-88
2022/10/17 10:02:52;;;;;;;4.78;4.03;;;;;;;;;;4423592;32;20557;-87
2022/10/17 10:05:21;;;;;;;8.63;3.53;;;;;;;;;;4423182;32;20698;-86
2022/10/17 10:08:02;;;;;;;6.78;3.12;;;;;;;;;;4423479;32;20295;-87
2022/10/17 10:10:31;;;;;;;5.80;3.30;;;;;;;;;;4423959;32;20259;-86
2022/10/17 10:13:04;;;;;;;4.53;3.25;;;;;;;;;;4423424;32;20345;-85
2022/10/17 10:15:37;;;;;;;6.55;3.28;;;;;;;;;;4423308;32;20220;-86
2022/10/17 10:18:31;;;;;;;6.05;3.17;;;;;;;;;;4422637;32;20292;-88
2022/10/17 10:21:12;;;;;;;5.07;3.72;;;;;;;;;;4422133;32;20315;-86
2022/10/17 10:23:41;;;;;;;7.30;4.95;;;;;;;;;;4423044;32;20673;-87
2022/10/17 10:26:26;;;;;;;6.15;4.12;;;;;;;;;;4422968;32;20736;-86
2022/10/17 10:29:00;;;;;;;10.32;6.70;;;;;;;;;;4422165;32;20247;-87
2022/10/17 10:31:34;;;;;;;16.48;5.95;;;;;;;;;;4422959;32;20551;-86
2022/10/17 10:34:15;;;;;;;9.10;3.97;;;;;;;;;;4422018;32;20213;-86
2022/10/17 10:36:54;;;;;;;17.92;7.12;;;;;;;;;;4423051;32;20225;-86
2022/10/17 10:39:43;;;;;;;6.05;3.67;;;;;;;;;;4423172;32;20208;-86
2022/10/17 10:42:24;;;;;;;4.90;3.50;;;;;;;;;;4422161;32;20321;-87
2022/10/17 10:44:54;;;;;;;5.60;3.42;;;;;;;;;;4423205;32;20289;-86
2022/10/17 10:47:25;;;;;;;4.28;2.72;;;;;;;;;;4424008;32;20209;-86
2022/10/17 10:49:53;;;;;;;8.50;3.03;;;;;;;;;;4421968;32;20225;-86
2022/10/17 10:52:31;;;;;;;4.87;3.17;;;;;;;;;;4422807;32;20606;-85
2022/10/17 10:55:15;;;;;;;7.62;2.70;;;;;;;;;;4422689;32;20295;-86
2022/10/17 10:57:46;;;;;;;5.50;3.53;;;;;;;;;;4422995;32;20209;-87
2022/10/17 11:00:18;;;;;;;8.73;3.80;;;;;;;;;;4422440;32;20680;-86
2022/10/17 11:02:53;;;;;;;8.50;4.85;;;;;;;;;;4422112;32;20312;-86
2022/10/17 11:05:26;;;;;;;4.25;3.42;;;;;;;;;;4420804;32;20251;-86
2022/10/17 11:08:02;;;;;;;4.60;3.20;;;;;;;;;;4421955;32;20274;-86
2022/10/17 11:10:37;;;;;;;8.02;3.55;;;;;;;;;;4422239;32;20220;-86
2022/10/17 11:13:11;;;;;;;5.97;3.67;;;;;;;;;;4422812;32;20208;-86
2022/10/17 11:15:47;;;;;;;7.25;3.72;;;;;;;;;;4422160;32;20232;-87
2022/10/17 11:18:21;;;;;;;6.53;3.60;;;;;;;;;;4423344;32;20265;-87
2022/10/17 11:20:56;;;;;;;8.85;4.28;;;;;;;;;;4422459;32;20295;-87
2022/10/17 11:23:32;;;;;;;11.07;5.20;;;;;;;;;;4423114;32;20604;-86
2022/10/17 11:26:03;;;;;;;15.15;4.60;;;;;;;;;;4422679;32;20276;-87
2022/10/17 11:28:32;;;;;;;5.35;2.95;;;;;;;;;;4424350;32;20205;-87
2022/10/17 11:31:03;;;;;;;5.93;4.10;;;;;;;;;;4423888;32;20699;-86
2022/10/17 11:33:37;;;;;;;5.82;3.20;;;;;;;;;;4423056;32;20237;-86
2022/10/17 11:36:08;;;;;;;5.45;3.92;;;;;;;;;;4423308;32;20232;-86
2022/10/17 11:38:56;;;;;;;7.65;3.97;;;;;;;;;;4422852;32;20686;-86
2022/10/17 11:41:30;;;;;;;4.87;3.10;;;;;;;;;;4422506;32;20231;-86
2022/10/17 11:44:00;;;;;;;8.60;2.80;;;;;;;;;;4421473;32;20212;-86
2022/10/17 11:46:28;;;;;;;6.80;2.80;;;;;;;;;;4422620;32;20689;-87
2022/10/17 11:49:10;;;;;;;6.20;2.80;;;;;;;;;;4422753;32;20630;-86
2022/10/17 11:51:43;;;;;;;9.77;3.87;;;;;;;;;;4422448;32;20660;-86
2022/10/17 11:54:15;;;;;;;6.82;2.95;;;;;;;;;;4422705;32;20264;-86
2022/10/17 11:56:48;;;;;;;4.47;2.83;;;;;;;;;;4422426;32;20279;-86
2022/10/17 11:59:45;;;;;;;5.57;2.95;;;;;;;;;;4421472;32;20306;-86
2022/10/17 12:02:21;;;;;;;5.90;3.40;;;;;;;;;;4422275;32;20216;-86
2022/10/17 12:04:56;;;;;;;15.95;3.85;;;;;;;;;;4422597;32;20224;-86
2022/10/17 12:07:44;;;;;;;13.43;3.78;;;;;;;;;;4422043;32;20220;-86
2022/10/17 12:10:25;;;;;;;9.77;4.15;;;;;;;;;;4420839;32;20233;-86
2022/10/17 12:12:52;;;;;;;3.70;2.67;;;;;;;;;;4421889;32;20721;-87
2022/10/17 12:15:30;;;;;;;11.35;3.03;;;;;;;;;;4421726;32;20258;-86
2022/10/17 12:18:02;;;;;;;4.43;2.83;;;;;;;;;;4421914;32;20212;-86
2022/10/17 12:20:34;;;;;;;4.80;2.83;;;;;;;;;;4422408;32;20237;-85
2022/10/17 12:23:27;;;;;;;15.02;3.80;;;;;;;;;;4422665;32;20213;-86
2022/10/17 12:26:00;;;;;;;5.10;2.95;;;;;;;;;;4421979;32;20642;-86
2022/10/17 12:28:29;;;;;;;12.70;5.37;;;;;;;;;;4422288;32;20253;-85
2022/10/17 12:31:00;;;;;;;4.90;2.83;;;;;;;;;;4422312;32;20554;-86
2022/10/17 12:33:32;;;;;;;5.45;2.58;;;;;;;;;;4422158;32;20224;-87
2022/10/17 12:36:44;;;;;;;6.97;3.62;;;;;;;;;;4422042;32;20214;-86
2022/10/17 12:39:57;;;;;;;12.60;3.00;;;;;;;;;;4374471;32;20733;-86
2022/10/17 12:42:48;;;;;;;5.25;3.10;;;;;;;;;;4399978;32;20228;-86
2022/10/17 12:45:51;;;;;;;3.62;2.95;;;;;;;;;;4424676;32;20267;-86
2022/10/17 12:49:02;;;;;;;4.22;2.70;;;;;;;;;;4425450;32;20228;-85
2022/10/17 12:51:50;;;;;;;7.93;3.35;;;;;;;;;;4403222;32;20615;-87
2022/10/17 12:54:17;;;;;;;7.80;3.85;;;;;;;;;;4424655;32;20294;-86
2022/10/17 12:56:47;;;;;;;5.75;3.10;;;;;;;;;;4424777;32;20213;-86
2022/10/17 12:59:20;;;;;;;6.43;3.10;;;;;;;;;;4424814;32;20289;-86
2022/10/17 13:01:54;;;;;;;4.57;2.97;;;;;;;;;;4425508;32;20228;-86
2022/10/17 13:04:22;;;;;;;9.93;3.10;;;;;;;;;;4424738;32;20726;-85
2022/10/17 13:06:52;;;;;;;8.65;3.05;;;;;;;;;;4424386;32;20237;-85
2022/10/17 13:09:30;;;;;;;3.75;2.87;;;;;;;;;;4424691;32;20242;-86
2022/10/17 13:11:59;;;;;;;4.78;3.15;;;;;;;;;;4425145;32;20224;-87
2022/10/17 13:14:29;;;;;;;9.18;2.33;;;;;;;;;;4424447;32;20225;-85
2022/10/17 13:16:58;;;;;;;5.62;3.03;;;;;;;;;;4424429;32;20262;-85
2022/10/17 13:19:27;;;;;;;6.05;3.60;;;;;;;;;;4424461;32;20267;-85
2022/10/17 13:21:57;;;;;;;6.20;3.35;;;;;;;;;;4424415;32;20209;-85
2022/10/17 13:24:30;;;;;;;7.32;4.05;;;;;;;;;;4424188;32;20570;-87
2022/10/17 13:26:58;;;;;;;8.23;2.90;;;;;;;;;;4424813;32;20319;-85
2022/10/17 13:29:27;;;;;;;5.80;3.17;;;;;;;;;;4424876;32;20650;-85
2022/10/17 13:31:59;;;;;;;7.03;2.97;;;;;;;;;;4424571;32;20217;-85
2022/10/17 13:34:28;;;;;;;4.60;2.40;;;;;;;;;;4424284;32;20235;-85
2022/10/17 13:36:56;;;;;;;7.78;3.72;;;;;;;;;;4424191;32;20204;-87
2022/10/17 13:39:25;;;;;;;8.30;3.65;;;;;;;;;;4424171;32;20225;-86
2022/10/17 13:41:54;;;;;;;4.47;3.03;;;;;;;;;;4424495;32;20280;-86
2022/10/17 13:44:23;;;;;;;5.78;3.80;;;;;;;;;;4423044;32;20292;-86
2022/10/17 13:46:52;;;;;;;9.65;3.78;;;;;;;;;;4423968;32;20262;-85
2022/10/17 13:49:26;;;;;;;4.72;3.05;;;;;;;;;;4424022;32;20225;-87
2022/10/17 13:51:54;;;;;;;5.12;3.58;;;;;;;;;;4424513;32;20204;-87
2022/10/17 13:54:40;;;;;;;7.10;3.37;;;;;;;;;;4423959;32;20330;-87
2022/10/17 13:57:18;;;;;;;9.05;3.90;;;;;;;;;;4424480;32;20208;-87
2022/10/17 13:59:47;;;;;;;5.93;2.83;;;;;;;;;;4423764;32;20221;-86
2022/10/17 14:02:16;;;;;;;7.55;3.15;;;;;;;;;;4423687;32;20576;-86
2022/10/17 14:04:44;;;;;;;7.12;3.47;;;;;;;;;;4423435;32;20330;-87
2022/10/17 14:07:24;;;;;;;8.43;3.87;;;;;;;;;;4422656;32;20523;-86
2022/10/17 14:09:51;;;;;;;5.18;3.12;;;;;;;;;;4423546;32;20239;-86
2022/10/17 14:12:20;;;;;;;6.90;3.03;;;;;;;;;;4423948;32;20201;-87
2022/10/17 14:14:50;;;;;;;12.25;4.30;;;;;;;;;;4423659;32;20690;-86
2022/10/17 14:17:23;;;;;;;6.30;3.30;;;;;;;;;;4424151;32;20201;-86
2022/10/17 14:19:54;;;;;;;10.40;3.97;;;;;;;;;;4423592;32;20375;-86
2022/10/17 14:22:27;;;;;;;6.47;3.78;;;;;;;;;;4423500;32;20644;-86
2022/10/17 14:24:54;;;;;;;5.55;3.67;;;;;;;;;;4423482;32;20308;-86
2022/10/17 14:27:30;;;;;;;5.30;3.20;;;;;;;;;;4423978;32;20237;-87
2022/10/17 14:30:01;;;;;;;4.50;3.28;;;;;;;;;;4424073;32;20220;-86
2022/10/17 14:32:31;;;;;;;14.25;3.87;;;;;;;;;;4424310;32;20201;-86
2022/10/17 14:35:02;;;;;;;11.32;4.80;;;;;;;;;;4423934;32;20205;-86
2022/10/17 14:37:36;;;;;;;4.87;3.53;;;;;;;;;;4423401;32;20622;-87
2022/10/17 14:40:05;;;;;;;9.60;3.83;;;;;;;;;;4423894;32;20215;-87
2022/10/17 14:42:38;;;;;;;10.15;3.50;;;;;;;;;;4423279;32;20284;-87
2022/10/17 14:45:08;;;;;;;5.03;3.05;;;;;;;;;;4423847;32;20250;-87
2022/10/17 14:47:35;;;;;;;6.05;3.25;;;;;;;;;;4423704;32;20595;-86
2022/10/17 14:50:08;;;;;;;10.13;4.37;;;;;;;;;;4423571;32;20622;-86
2022/10/17 14:52:37;;;;;;;10.85;5.22;;;;;;;;;;4423715;32;20209;-87
2022/10/17 14:55:22;;;;;;;9.90;5.37;;;;;;;;;;4422280;32;20304;-87